createdAt,value
2022-10-05T00:00:30.164Z,10.98
2022-10-05T00:02:58.223Z,10.97
2022-10-05T00:05:32.155Z,11.00
2022-10-05T00:08:12.782Z,11.26
2022-10-05T00:10:42.363Z,11.43
2022-10-05T00:13:16.248Z,10.87
2022-10-05T00:15:44.562Z,11.10
2022-10-05T00:18:15.945Z,11.01
2022-10-05T00:20:44.464Z,10.76
2022-10-05T00:23:18.337Z,10.50
2022-10-05T00:25:48.402Z,10.62
2022-10-05T00:28:22.375Z,10.68
2022-10-05T00:30:50.369Z,10.54
2022-10-05T00:33:18.192Z,10.46
2022-10-05T00:35:46.270Z,10.30
2022-10-05T00:38:14.103Z,10.28
2022-10-05T00:40:53.505Z,10.52
2022-10-05T00:43:45.091Z,10.83
2022-10-05T00:46:19.710Z,10.70
2022-10-05T00:48:57.218Z,10.58
2022-10-05T00:51:30.919Z,10.21
2022-10-05T00:54:22.795Z,10.29
2022-10-05T00:57:09.242Z,10.31
2022-10-05T00:59:52.509Z,10.27
2022-10-05T01:02:32.988Z,10.14
2022-10-05T01:05:10.581Z,10.10
2022-10-05T01:07:48.783Z,10.04
2022-10-05T01:10:26.649Z,10.09
2022-10-05T01:13:02.232Z,10.03
2022-10-05T01:15:38.347Z,9.98
2022-10-05T01:18:14.507Z,10.16
2022-10-05T01:20:55.250Z,10.12
2022-10-05T01:23:38.042Z,10.08
2022-10-05T01:26:26.518Z,9.96
2022-10-05T01:29:03.415Z,10.05
2022-10-05T01:31:39.698Z,10.13
2022-10-05T01:34:14.234Z,10.06
2022-10-05T01:36:55.622Z,10.17
2022-10-05T01:39:28.541Z,10.00
2022-10-05T01:42:07.875Z,9.92
2022-10-05T01:44:44.421Z,10.10
2022-10-05T01:47:18.597Z,10.16
2022-10-05T01:49:54.120Z,9.97
2022-10-05T01:52:33.994Z,9.79
2022-10-05T01:55:14.510Z,9.77
2022-10-05T01:57:51.461Z,9.66
2022-10-05T02:00:21.218Z,9.58
2022-10-05T02:02:53.448Z,9.58
2022-10-05T02:05:24.356Z,9.71
2022-10-05T02:07:57.740Z,9.87
2022-10-05T02:10:31.902Z,9.70
2022-10-05T02:13:11.493Z,9.75
2022-10-05T02:15:45.671Z,9.76
2022-10-05T02:18:20.883Z,9.75
2022-10-05T02:20:51.993Z,9.99
2022-10-05T02:23:24.161Z,9.89
2022-10-05T02:25:53.787Z,9.71
2022-10-05T02:28:25.950Z,9.74
2022-10-05T02:30:59.657Z,9.61
2022-10-05T02:33:30.787Z,9.57
2022-10-05T02:36:05.380Z,9.47
2022-10-05T02:38:41.922Z,9.37
2022-10-05T02:41:18.373Z,9.37
2022-10-05T02:43:55.230Z,9.28
2022-10-05T02:46:34.821Z,9.30
2022-10-05T02:49:15.752Z,9.31
2022-10-05T02:51:51.904Z,9.35
2022-10-05T02:54:40.358Z,9.28
2022-10-05T02:57:13.627Z,9.23
2022-10-05T02:59:45.620Z,9.09
2022-10-05T03:02:22.370Z,9.04
2022-10-05T03:05:07.393Z,9.15
2022-10-05T03:07:38.652Z,9.28
2022-10-05T03:10:12.515Z,9.14
2022-10-05T03:12:50.757Z,9.27
2022-10-05T03:15:34.108Z,9.11
2022-10-05T03:18:14.158Z,9.17
2022-10-05T03:20:49.760Z,9.18
2022-10-05T03:23:22.735Z,9.14
2022-10-05T03:26:11.207Z,9.27
2022-10-05T03:28:51.665Z,9.35
2022-10-05T03:31:26.623Z,9.36
2022-10-05T03:33:58.116Z,9.50
2022-10-05T03:36:33.048Z,9.44
2022-10-05T03:39:08.850Z,9.44
2022-10-05T03:41:45.016Z,9.56
2022-10-05T03:44:27.337Z,9.55
2022-10-05T03:47:12.542Z,9.56
2022-10-05T03:49:58.111Z,9.51
2022-10-05T03:52:35.171Z,9.63
2022-10-05T03:55:10.340Z,9.68
2022-10-05T03:57:41.304Z,9.81
2022-10-05T04:00:16.057Z,9.77
2022-10-05T04:02:55.210Z,9.87
2022-10-05T04:05:28.149Z,9.88
2022-10-05T04:08:05.738Z,9.86
2022-10-05T04:10:40.957Z,9.80
2022-10-05T04:13:15.272Z,9.74
2022-10-05T04:15:50.961Z,9.68
2022-10-05T04:18:26.803Z,9.79
2022-10-05T04:21:02.330Z,9.73
2022-10-05T04:23:41.857Z,9.71
2022-10-05T04:26:15.088Z,9.70
2022-10-05T04:28:51.332Z,9.95
2022-10-05T04:31:34.332Z,9.86
2022-10-05T04:34:15.148Z,9.94
2022-10-05T04:36:48.984Z,9.91
2022-10-05T04:39:24.838Z,9.84
2022-10-05T04:42:07.444Z,9.86
2022-10-05T04:45:01.419Z,10.00
2022-10-05T04:47:48.324Z,10.05
2022-10-05T04:50:37.221Z,10.11
2022-10-05T04:53:23.232Z,10.14
2022-10-05T04:55:58.058Z,10.07
2022-10-05T04:58:42.229Z,10.01
2022-10-05T05:01:27.615Z,10.20
2022-10-05T05:04:14.301Z,10.21
2022-10-05T05:06:49.542Z,10.15
2022-10-05T05:09:52.113Z,10.15
2022-10-05T05:12:29.018Z,9.99
2022-10-05T05:15:19.772Z,10.08
2022-10-05T05:18:01.666Z,10.26
2022-10-05T05:20:42.449Z,10.18
2022-10-05T05:23:18.854Z,10.14
2022-10-05T05:25:57.804Z,10.16
2022-10-05T05:28:34.587Z,10.22
2022-10-05T05:31:11.392Z,10.24
2022-10-05T05:33:50.788Z,10.24
2022-10-05T05:36:34.443Z,10.34
2022-10-05T05:39:28.821Z,10.24
2022-10-05T05:42:02.944Z,10.23
2022-10-05T05:44:38.921Z,10.25
2022-10-05T05:47:18.684Z,10.32
2022-10-05T05:50:06.615Z,10.25
2022-10-05T05:52:42.003Z,10.23
2022-10-05T05:55:17.797Z,10.26
2022-10-05T05:57:55.704Z,10.26
2022-10-05T06:00:28.589Z,10.47
2022-10-05T06:03:09.204Z,10.41
2022-10-05T06:05:43.025Z,10.48
2022-10-05T06:08:17.841Z,10.44
2022-10-05T06:10:53.519Z,10.51
2022-10-05T06:13:28.468Z,10.57
2022-10-05T06:16:00.609Z,10.58
2022-10-05T06:18:32.489Z,10.63
2022-10-05T06:21:04.513Z,10.60
2022-10-05T06:23:44.065Z,10.66
2022-10-05T06:26:34.840Z,10.72
2022-10-05T06:29:10.024Z,10.89
2022-10-05T06:31:59.177Z,10.91
2022-10-05T06:34:42.771Z,10.88
2022-10-05T06:37:18.740Z,10.98
2022-10-05T06:40:01.532Z,11.05
2022-10-05T06:42:52.414Z,11.09
2022-10-05T06:46:03.732Z,11.17
2022-10-05T06:49:18.397Z,11.25
2022-10-05T06:52:14.934Z,11.23
2022-10-05T06:54:54.116Z,11.34
2022-10-05T06:57:46.545Z,11.45
2022-10-05T07:00:20.482Z,11.34
2022-10-05T07:02:58.368Z,11.48
2022-10-05T07:05:53.944Z,11.51
2022-10-05T07:08:34.674Z,11.57
2022-10-05T07:11:11.407Z,11.63
2022-10-05T07:14:05.764Z,11.69
2022-10-05T07:16:47.425Z,11.64
2022-10-05T07:19:35.636Z,11.65
2022-10-05T07:22:33.431Z,11.77
2022-10-05T07:25:09.954Z,11.74
2022-10-05T07:27:45.302Z,11.86
2022-10-05T07:30:16.238Z,11.86
2022-10-05T07:32:52.741Z,11.80
2022-10-05T07:35:48.425Z,12.00
2022-10-05T07:38:22.053Z,11.99
2022-10-05T07:40:55.134Z,12.03
2022-10-05T07:43:57.643Z,12.04
2022-10-05T07:46:25.250Z,12.12
2022-10-05T07:49:03.254Z,12.30
2022-10-05T07:51:37.423Z,12.36
2022-10-05T07:54:16.876Z,12.35
2022-10-05T07:56:50.131Z,12.50
2022-10-05T07:59:28.393Z,12.66
2022-10-05T08:02:06.836Z,12.66
2022-10-05T08:04:45.989Z,12.64
2022-10-05T08:07:18.165Z,12.89
2022-10-05T08:09:54.640Z,12.99
2022-10-05T08:12:31.787Z,13.05
2022-10-05T08:15:04.020Z,13.12
2022-10-05T08:17:43.619Z,13.10
2022-10-05T08:20:26.893Z,13.15
2022-10-05T08:23:01.821Z,13.24
2022-10-05T08:25:41.251Z,13.33
2022-10-05T08:28:18.584Z,13.47
2022-10-05T08:30:57.819Z,13.47
2022-10-05T08:33:32.284Z,13.52
2022-10-05T08:36:04.421Z,13.59
2022-10-05T08:38:35.330Z,13.68
2022-10-05T08:41:42.615Z,13.63
2022-10-05T08:45:07.691Z,13.74
2022-10-05T08:48:07.741Z,13.77
2022-10-05T08:51:04.474Z,13.94
2022-10-05T08:54:03.750Z,14.04
2022-10-05T08:56:42.902Z,14.06
2022-10-05T08:59:38.692Z,14.14
2022-10-05T09:02:24.503Z,14.17
2022-10-05T09:05:21.170Z,14.26
2022-10-05T09:08:24.088Z,14.38
2022-10-05T09:11:08.059Z,14.52
2022-10-05T09:14:23.274Z,14.62
2022-10-05T09:17:02.864Z,14.62
2022-10-05T09:19:53.933Z,14.64
2022-10-05T09:22:37.888Z,14.91
2022-10-05T09:25:22.774Z,15.00
2022-10-05T09:27:58.207Z,14.95
2022-10-05T09:30:48.010Z,15.13
2022-10-05T09:33:55.618Z,15.24
2022-10-05T09:37:09.461Z,15.23
2022-10-05T09:40:32.045Z,15.37
2022-10-05T09:43:17.100Z,15.44
2022-10-05T09:46:30.849Z,15.55
2022-10-05T09:49:30.770Z,15.52
2022-10-05T09:52:25.611Z,15.55
2022-10-05T09:55:20.699Z,15.57
2022-10-05T09:58:28.351Z,15.74
2022-10-05T10:01:36.407Z,15.92
2022-10-05T10:04:29.643Z,16.03
2022-10-05T10:07:43.248Z,15.93
2022-10-05T10:10:55.455Z,15.89
2022-10-05T10:13:53.337Z,15.91
2022-10-05T10:16:36.534Z,15.76
2022-10-05T10:19:20.789Z,15.84
2022-10-05T10:22:07.660Z,15.87
2022-10-05T10:24:52.038Z,15.81
2022-10-05T10:27:34.765Z,15.75
2022-10-05T10:30:37.609Z,15.78
2022-10-05T10:33:27.811Z,15.95
2022-10-05T10:36:06.018Z,16.01
2022-10-05T10:38:42.526Z,16.17
2022-10-05T10:41:41.526Z,16.23
2022-10-05T10:44:37.963Z,16.19
2022-10-05T10:47:29.114Z,16.35
2022-10-05T10:50:29.280Z,16.49
2022-10-05T10:53:10.165Z,16.51
2022-10-05T10:55:43.357Z,16.74
2022-10-05T10:58:52.193Z,16.76
2022-10-05T11:01:38.246Z,16.87
2022-10-05T11:04:24.283Z,16.93
2022-10-05T11:07:21.238Z,16.98
2022-10-05T11:10:04.943Z,17.08
2022-10-05T11:13:06.916Z,17.16
2022-10-05T11:16:00.697Z,17.09
2022-10-05T11:18:44.675Z,17.33
2022-10-05T11:21:30.294Z,17.66
2022-10-05T11:24:30.576Z,17.67
2022-10-05T11:30:22.979Z,18.04
2022-10-05T11:33:20.307Z,18.01
2022-10-05T11:36:01.392Z,18.13
2022-10-05T11:39:02.043Z,18.28
2022-10-05T11:42:00.336Z,18.51
2022-10-05T11:45:01.531Z,19.10
2022-10-05T11:47:33.081Z,19.14
2022-10-05T11:50:12.437Z,18.99
2022-10-05T11:52:47.850Z,18.71
2022-10-05T11:55:27.427Z,18.76
2022-10-05T11:57:58.756Z,18.67
2022-10-05T12:00:35.516Z,18.64
2022-10-05T12:03:29.078Z,18.39
2022-10-05T12:06:38.797Z,18.29
2022-10-05T12:09:20.376Z,18.31
2022-10-05T12:12:04.133Z,18.25
2022-10-05T12:14:44.494Z,19.06
2022-10-05T12:17:23.669Z,19.96
2022-10-05T12:19:55.666Z,22.60
2022-10-05T12:22:30.803Z,22.65
2022-10-05T12:25:07.976Z,23.98
2022-10-05T12:27:42.123Z,24.58
2022-10-05T12:30:17.933Z,24.28
2022-10-05T12:33:02.500Z,25.22
2022-10-05T12:35:47.771Z,26.05
2022-10-05T12:38:28.438Z,26.37
2022-10-05T12:41:05.140Z,25.75
2022-10-05T12:43:44.768Z,26.06
2022-10-05T12:46:22.423Z,26.17
2022-10-05T12:49:00.630Z,25.86
2022-10-05T12:51:37.831Z,26.25
2022-10-05T12:54:16.937Z,26.03
2022-10-05T12:56:53.659Z,25.46
2022-10-05T12:59:36.621Z,23.95
2022-10-05T13:02:12.905Z,22.65
2022-10-05T13:04:50.030Z,22.63
2022-10-05T13:07:42.269Z,22.52
2022-10-05T13:10:28.015Z,22.03
2022-10-05T13:13:06.785Z,21.90
2022-10-05T13:15:46.437Z,21.48
2022-10-05T13:18:22.878Z,21.46
2022-10-05T13:21:02.759Z,21.32
2022-10-05T13:23:39.835Z,21.31
2022-10-05T13:26:12.465Z,21.06
2022-10-05T13:28:45.800Z,20.93
2022-10-05T13:31:20.964Z,21.12
2022-10-05T13:34:15.036Z,21.06
2022-10-05T13:36:54.702Z,20.96
2022-10-05T13:39:35.782Z,21.29
2022-10-05T13:42:10.330Z,21.31
2022-10-05T13:44:46.690Z,21.18
2022-10-05T13:47:26.546Z,20.93
2022-10-05T13:49:58.059Z,20.93
2022-10-05T13:52:38.148Z,20.73
2022-10-05T13:55:17.789Z,20.42
2022-10-05T13:57:57.860Z,20.42
2022-10-05T14:00:27.446Z,20.31
2022-10-05T14:02:58.462Z,20.36
2022-10-05T14:05:28.253Z,20.16
2022-10-05T14:07:58.466Z,19.91
2022-10-05T14:10:35.728Z,20.16
2022-10-05T14:13:21.317Z,20.13
2022-10-05T14:16:07.555Z,19.96
2022-10-05T14:18:39.292Z,19.86
2022-10-05T14:21:22.091Z,19.85
2022-10-05T14:23:50.365Z,19.64
2022-10-05T14:26:20.720Z,19.39
2022-10-05T14:28:59.444Z,19.39
2022-10-05T14:31:36.408Z,19.25
2022-10-05T14:34:35.613Z,19.28
2022-10-05T14:37:10.034Z,19.37
2022-10-05T14:39:42.273Z,19.24
2022-10-05T14:42:19.359Z,19.24
2022-10-05T14:44:59.848Z,19.09
2022-10-05T14:47:31.861Z,19.13
2022-10-05T14:50:17.719Z,19.11
2022-10-05T14:52:51.848Z,19.15
2022-10-05T14:55:37.245Z,19.09
2022-10-05T14:58:19.071Z,19.05
2022-10-05T15:00:55.459Z,19.14
2022-10-05T15:03:43.321Z,19.08
2022-10-05T15:06:21.456Z,18.81
2022-10-05T15:09:16.982Z,19.00
2022-10-05T15:11:51.757Z,19.09
2022-10-05T15:14:23.365Z,19.11
2022-10-05T15:16:53.862Z,18.99
2022-10-05T15:19:28.322Z,18.91
2022-10-05T15:22:18.668Z,18.88
2022-10-05T15:25:01.682Z,18.85
2022-10-05T15:27:38.841Z,18.80
2022-10-05T15:30:12.446Z,18.85
2022-10-05T15:33:04.328Z,18.79
2022-10-05T15:35:49.945Z,18.76
2022-10-05T15:38:25.791Z,18.74
2022-10-05T15:41:03.434Z,18.69
2022-10-05T15:43:48.059Z,18.60
2022-10-05T15:46:19.341Z,18.47
2022-10-05T15:48:53.216Z,18.49
2022-10-05T15:51:31.845Z,18.45
2022-10-05T15:54:25.008Z,18.26
2022-10-05T15:56:58.373Z,18.26
2022-10-05T15:59:35.262Z,18.29
2022-10-05T16:02:15.589Z,18.23
2022-10-05T16:04:52.040Z,18.18
2022-10-05T16:07:41.469Z,17.94
2022-10-05T16:10:17.031Z,17.97
2022-10-05T16:12:55.259Z,17.91
2022-10-05T16:15:29.861Z,17.93
2022-10-05T16:18:10.035Z,17.77
2022-10-05T16:20:46.580Z,17.62
2022-10-05T16:23:25.635Z,17.59
2022-10-05T16:26:07.855Z,17.64
2022-10-05T16:28:44.683Z,17.49
2022-10-05T16:31:18.816Z,17.37
2022-10-05T16:33:54.380Z,17.30
2022-10-05T16:36:40.097Z,17.22
2022-10-05T16:39:16.766Z,17.17
2022-10-05T16:41:54.197Z,17.14
2022-10-05T16:44:33.485Z,16.99
2022-10-05T16:47:08.387Z,16.92
2022-10-05T16:49:58.945Z,16.86
2022-10-05T16:52:27.900Z,16.76
2022-10-05T16:55:00.162Z,16.70
2022-10-05T16:57:35.194Z,16.48
2022-10-05T17:00:17.216Z,16.32
2022-10-05T17:03:02.707Z,16.03
2022-10-05T17:05:51.202Z,16.01
2022-10-05T17:08:41.939Z,15.76
2022-10-05T17:11:22.775Z,15.72
2022-10-05T17:14:08.370Z,15.60
2022-10-05T17:16:47.946Z,15.63
2022-10-05T17:19:35.144Z,15.48
2022-10-05T17:22:12.548Z,15.52
2022-10-05T17:24:53.135Z,15.44
2022-10-05T17:27:32.802Z,15.41
2022-10-05T17:30:22.356Z,15.69
2022-10-05T17:32:59.086Z,15.45
2022-10-05T17:35:56.936Z,15.42
2022-10-05T17:38:50.533Z,15.44
2022-10-05T17:41:22.169Z,15.08
2022-10-05T17:44:35.933Z,15.26
2022-10-05T17:47:09.009Z,15.21
2022-10-05T17:50:08.782Z,15.09
2022-10-05T17:52:56.750Z,14.90
2022-10-05T17:55:44.747Z,14.65
2022-10-05T17:59:01.851Z,14.76
2022-10-05T18:01:32.721Z,14.79
2022-10-05T18:04:33.566Z,14.99
2022-10-05T18:07:05.695Z,15.07
2022-10-05T18:09:54.017Z,15.30
2022-10-05T18:12:45.323Z,14.95
2022-10-05T18:15:48.697Z,14.95
2022-10-05T18:18:55.983Z,14.86
2022-10-05T18:21:35.696Z,14.72
2022-10-05T18:25:03.657Z,14.64
2022-10-05T18:28:05.366Z,14.65
2022-10-05T18:30:41.463Z,14.78
2022-10-05T18:33:42.464Z,14.72
2022-10-05T18:36:22.251Z,14.70
2022-10-05T18:39:01.106Z,14.62
2022-10-05T18:41:40.188Z,14.75
2022-10-05T18:44:32.783Z,14.62
2022-10-05T18:47:10.106Z,14.67
2022-10-05T18:49:51.803Z,14.69
2022-10-05T18:52:29.579Z,14.68
2022-10-05T18:55:12.373Z,14.75
2022-10-05T18:57:52.494Z,14.60
2022-10-05T19:00:22.816Z,14.67
2022-10-05T19:02:57.222Z,14.77
2022-10-05T19:05:54.467Z,14.70
2022-10-05T19:08:33.912Z,14.68
2022-10-05T19:11:15.419Z,14.60
2022-10-05T19:13:52.588Z,14.76
2022-10-05T19:16:49.329Z,14.67
2022-10-05T19:19:45.060Z,14.87
2022-10-05T19:22:25.387Z,14.76
2022-10-05T19:25:21.671Z,14.78
2022-10-05T19:28:03.701Z,14.75
2022-10-05T19:30:44.621Z,14.79
2022-10-05T19:33:25.948Z,14.76
2022-10-05T19:36:14.761Z,14.82
2022-10-05T19:38:55.264Z,14.77
2022-10-05T19:41:31.870Z,14.92
2022-10-05T19:44:19.321Z,14.93
2022-10-05T19:47:02.704Z,15.01
2022-10-05T19:49:50.007Z,14.93
2022-10-05T19:52:24.119Z,14.94
2022-10-05T19:55:14.533Z,14.88
2022-10-05T19:57:50.038Z,14.97
2022-10-05T20:00:26.112Z,14.86
2022-10-05T20:03:10.659Z,14.82
2022-10-05T20:05:39.079Z,14.96
2022-10-05T20:08:08.257Z,14.86
2022-10-05T20:10:36.565Z,14.88
2022-10-05T20:13:08.673Z,14.80
2022-10-05T20:15:55.540Z,14.85
2022-10-05T20:19:21.428Z,14.79
2022-10-05T20:21:50.113Z,14.83
2022-10-05T20:24:19.729Z,14.79
2022-10-05T20:27:16.154Z,14.86
2022-10-05T20:29:45.704Z,14.80
2022-10-05T20:32:17.999Z,14.80
2022-10-05T20:34:56.731Z,14.86
2022-10-05T20:37:25.218Z,14.82
2022-10-05T20:39:53.176Z,14.91
2022-10-05T20:42:22.938Z,14.90
2022-10-05T20:44:55.824Z,14.94
2022-10-05T20:47:26.894Z,14.93
2022-10-05T20:49:55.324Z,15.01
2022-10-05T20:52:23.851Z,15.06
2022-10-05T20:54:53.813Z,14.98
2022-10-05T20:57:23.927Z,14.96
2022-10-05T20:59:52.222Z,15.13
2022-10-05T21:02:20.528Z,15.11
2022-10-05T21:04:49.732Z,15.06
2022-10-05T21:07:19.820Z,14.99
2022-10-05T21:09:47.656Z,14.92
2022-10-05T21:12:16.524Z,15.04
2022-10-05T21:14:44.404Z,14.97
2022-10-05T21:17:12.481Z,14.98
2022-10-05T21:19:40.667Z,15.02
2022-10-05T21:22:10.900Z,15.07
2022-10-05T21:24:40.850Z,15.02
2022-10-05T21:27:11.716Z,15.05
2022-10-05T21:29:41.173Z,15.16
2022-10-05T21:32:11.423Z,15.19
2022-10-05T21:34:39.966Z,15.25
2022-10-05T21:37:09.796Z,15.22
2022-10-05T21:39:37.601Z,15.22
2022-10-05T21:42:05.638Z,15.35
2022-10-05T21:44:33.452Z,15.35
2022-10-05T21:47:01.861Z,15.28
2022-10-05T21:49:29.989Z,15.32
2022-10-05T21:52:01.581Z,15.28
2022-10-05T21:54:33.633Z,15.50
2022-10-05T21:57:01.712Z,15.38
2022-10-05T21:59:33.862Z,15.53
2022-10-05T22:02:02.359Z,15.62
2022-10-05T22:04:30.132Z,15.64
2022-10-05T22:06:57.976Z,15.59
2022-10-05T22:09:25.852Z,15.67
2022-10-05T22:11:55.050Z,15.65
2022-10-05T22:14:23.154Z,15.65
2022-10-05T22:16:51.038Z,15.59
2022-10-05T22:19:21.328Z,15.64
2022-10-05T22:21:49.331Z,15.64
2022-10-05T22:24:17.174Z,15.52
2022-10-05T22:26:48.266Z,15.59
2022-10-05T22:29:18.454Z,15.45
2022-10-05T22:31:48.682Z,15.52
2022-10-05T22:34:17.817Z,15.49
2022-10-05T22:36:45.836Z,15.35
2022-10-05T22:39:13.890Z,15.44
2022-10-05T22:41:41.968Z,15.45
2022-10-05T22:44:09.848Z,15.37
2022-10-05T22:46:39.034Z,15.38
2022-10-05T22:49:06.856Z,15.40
2022-10-05T22:51:34.742Z,15.27
2022-10-05T22:54:02.585Z,15.36
2022-10-05T22:56:30.469Z,15.29
2022-10-05T22:59:05.459Z,15.29
2022-10-05T23:01:40.398Z,15.27
2022-10-05T23:04:12.182Z,15.11
2022-10-05T23:06:40.009Z,15.26
2022-10-05T23:09:07.838Z,15.22
2022-10-05T23:11:36.201Z,15.29
2022-10-05T23:14:03.972Z,15.32
2022-10-05T23:16:31.796Z,15.30
2022-10-05T23:19:00.233Z,15.25
2022-10-05T23:21:31.044Z,15.18
2022-10-05T23:23:58.817Z,15.17
2022-10-05T23:26:27.085Z,15.13
2022-10-05T23:28:55.154Z,15.07
2022-10-05T23:31:25.152Z,15.01
2022-10-05T23:33:53.694Z,15.10
2022-10-05T23:36:23.253Z,15.04
2022-10-05T23:38:52.413Z,14.81
2022-10-05T23:41:20.805Z,15.07
2022-10-05T23:43:48.714Z,14.92
2022-10-05T23:46:17.586Z,14.82
2022-10-05T23:48:45.593Z,14.87
2022-10-05T23:51:15.909Z,15.04
2022-10-05T23:53:43.882Z,14.96
2022-10-05T23:56:13.275Z,14.88
2022-10-05T23:58:41.765Z,14.83
